Terminal Aerodrome Forecast
Issued by NWS Billings, MT

Home | Current Version | Previous Version | Graphics & Text | Print | Product List | Glossary On
Versions: 1 2 3 4 5 6 7 8 9 10 11 12 13 14 15 16 17
000
FTUS45 KBYZ 132320
TAFMLS
TAF
KMLS 132320Z 1400/1424 36007KT P6SM SCT100
     FM140300 VRB05KT P6SM BKN090
     FM141100 35012KT P6SM -SHRA FEW015 BKN027
     FM141700 32011KT P6SM SCT025 BKN060=

USA.gov is the U.S. government's official web portal to all federal, state and local government web resources and services.